sensor_id;sensor_type;location;lat;lon;timestamp;P1;durP1;ratioP1;P2;durP2;ratioP2
25846;SDS011;13676;50.168;8.568;2022-08-21T00:01:44;4.97;;;2.67;;
25846;SDS011;13676;50.168;8.568;2022-08-21T00:04:09;5.68;;;2.92;;
25846;SDS011;13676;50.168;8.568;2022-08-21T00:06:36;7.57;;;3.20;;
25846;SDS011;13676;50.168;8.568;2022-08-21T00:09:03;3.87;;;2.40;;
25846;SDS011;13676;50.168;8.568;2022-08-21T00:11:30;4.70;;;2.78;;
25846;SDS011;13676;50.168;8.568;2022-08-21T00:13:55;7.88;;;3.03;;
25846;SDS011;13676;50.168;8.568;2022-08-21T00:16:21;6.20;;;3.40;;
25846;SDS011;13676;50.168;8.568;2022-08-21T00:18:47;4.95;;;2.70;;
25846;SDS011;13676;50.168;8.568;2022-08-21T00:21:14;4.65;;;2.55;;
25846;SDS011;13676;50.168;8.568;2022-08-21T00:23:40;5.28;;;3.25;;
25846;SDS011;13676;50.168;8.568;2022-08-21T00:26:06;6.32;;;3.15;;
25846;SDS011;13676;50.168;8.568;2022-08-21T00:28:32;7.03;;;2.80;;
25846;SDS011;13676;50.168;8.568;2022-08-21T00:30:57;6.30;;;2.75;;
25846;SDS011;13676;50.168;8.568;2022-08-21T00:33:24;5.35;;;2.67;;
25846;SDS011;13676;50.168;8.568;2022-08-21T00:35:49;6.13;;;3.42;;
25846;SDS011;13676;50.168;8.568;2022-08-21T00:38:15;6.32;;;3.13;;
25846;SDS011;13676;50.168;8.568;2022-08-21T00:43:18;4.22;;;2.38;;
25846;SDS011;13676;50.168;8.568;2022-08-21T00:45:50;5.82;;;2.58;;
25846;SDS011;13676;50.168;8.568;2022-08-21T00:48:17;4.43;;;2.80;;
25846;SDS011;13676;50.168;8.568;2022-08-21T00:50:44;4.32;;;2.70;;
25846;SDS011;13676;50.168;8.568;2022-08-21T00:53:15;5.60;;;2.97;;
25846;SDS011;13676;50.168;8.568;2022-08-21T00:55:41;4.40;;;2.55;;
25846;SDS011;13676;50.168;8.568;2022-08-21T00:58:08;5.88;;;3.17;;
25846;SDS011;13676;50.168;8.568;2022-08-21T01:03:05;4.75;;;2.53;;
25846;SDS011;13676;50.168;8.568;2022-08-21T01:05:32;7.38;;;3.13;;
25846;SDS011;13676;50.168;8.568;2022-08-21T01:07:58;5.03;;;2.72;;
25846;SDS011;13676;50.168;8.568;2022-08-21T01:10:23;5.15;;;2.75;;
25846;SDS011;13676;50.168;8.568;2022-08-21T01:12:50;4.70;;;2.58;;
25846;SDS011;13676;50.168;8.568;2022-08-21T01:15:16;6.07;;;2.80;;
25846;SDS011;13676;50.168;8.568;2022-08-21T01:17:42;6.30;;;2.70;;
25846;SDS011;13676;50.168;8.568;2022-08-21T01:20:08;5.82;;;2.78;;
25846;SDS011;13676;50.168;8.568;2022-08-21T01:22:36;3.78;;;2.10;;
25846;SDS011;13676;50.168;8.568;2022-08-21T01:25:05;3.20;;;2.35;;
25846;SDS011;13676;50.168;8.568;2022-08-21T01:27:32;4.80;;;2.58;;
25846;SDS011;13676;50.168;8.568;2022-08-21T01:29:59;6.97;;;2.85;;
25846;SDS011;13676;50.168;8.568;2022-08-21T01:32:30;3.75;;;2.53;;
25846;SDS011;13676;50.168;8.568;2022-08-21T01:34:56;4.60;;;3.13;;
25846;SDS011;13676;50.168;8.568;2022-08-21T01:37:21;4.32;;;2.70;;
25846;SDS011;13676;50.168;8.568;2022-08-21T01:39:47;4.32;;;2.83;;
25846;SDS011;13676;50.168;8.568;2022-08-21T01:42:12;4.72;;;2.60;;
25846;SDS011;13676;50.168;8.568;2022-08-21T01:44:38;4.47;;;2.70;;
25846;SDS011;13676;50.168;8.568;2022-08-21T01:47:05;4.55;;;3.40;;
25846;SDS011;13676;50.168;8.568;2022-08-21T01:49:33;4.70;;;2.92;;
25846;SDS011;13676;50.168;8.568;2022-08-21T01:52:00;3.55;;;2.78;;
25846;SDS011;13676;50.168;8.568;2022-08-21T01:54:26;5.40;;;2.90;;
25846;SDS011;13676;50.168;8.568;2022-08-21T01:56:52;4.70;;;2.47;;
25846;SDS011;13676;50.168;8.568;2022-08-21T01:59:18;7.43;;;3.03;;
25846;SDS011;13676;50.168;8.568;2022-08-21T02:01:44;4.95;;;2.90;;
25846;SDS011;13676;50.168;8.568;2022-08-21T02:04:10;4.75;;;2.80;;
25846;SDS011;13676;50.168;8.568;2022-08-21T02:06:36;4.53;;;3.30;;
25846;SDS011;13676;50.168;8.568;2022-08-21T02:09:05;4.57;;;2.97;;
25846;SDS011;13676;50.168;8.568;2022-08-21T02:11:32;5.28;;;3.65;;
25846;SDS011;13676;50.168;8.568;2022-08-21T02:13:58;3.42;;;3.00;;
25846;SDS011;13676;50.168;8.568;2022-08-21T02:16:23;3.55;;;2.42;;
25846;SDS011;13676;50.168;8.568;2022-08-21T02:18:49;2.95;;;2.55;;
25846;SDS011;13676;50.168;8.568;2022-08-21T02:21:14;5.75;;;3.08;;
25846;SDS011;13676;50.168;8.568;2022-08-21T02:23:40;6.47;;;3.00;;
25846;SDS011;13676;50.168;8.568;2022-08-21T02:26:07;4.03;;;2.80;;
25846;SDS011;13676;50.168;8.568;2022-08-21T02:28:33;6.45;;;3.35;;
25846;SDS011;13676;50.168;8.568;2022-08-21T02:30:59;5.63;;;3.50;;
25846;SDS011;13676;50.168;8.568;2022-08-21T02:33:26;5.68;;;3.08;;
25846;SDS011;13676;50.168;8.568;2022-08-21T02:35:52;4.82;;;3.10;;
25846;SDS011;13676;50.168;8.568;2022-08-21T02:38:20;4.47;;;2.70;;
25846;SDS011;13676;50.168;8.568;2022-08-21T02:40:48;5.22;;;2.90;;
25846;SDS011;13676;50.168;8.568;2022-08-21T02:43:15;6.43;;;2.88;;
25846;SDS011;13676;50.168;8.568;2022-08-21T02:45:41;4.53;;;3.20;;
25846;SDS011;13676;50.168;8.568;2022-08-21T02:48:08;3.30;;;2.70;;
25846;SDS011;13676;50.168;8.568;2022-08-21T02:50:36;4.75;;;3.00;;
25846;SDS011;13676;50.168;8.568;2022-08-21T02:53:06;6.03;;;3.30;;
25846;SDS011;13676;50.168;8.568;2022-08-21T02:55:33;5.93;;;3.17;;
25846;SDS011;13676;50.168;8.568;2022-08-21T02:58:00;4.53;;;3.25;;
25846;SDS011;13676;50.168;8.568;2022-08-21T03:00:29;3.72;;;2.90;;
25846;SDS011;13676;50.168;8.568;2022-08-21T03:02:55;3.30;;;2.70;;
25846;SDS011;13676;50.168;8.568;2022-08-21T03:05:21;7.15;;;3.45;;
25846;SDS011;13676;50.168;8.568;2022-08-21T03:07:48;4.23;;;3.10;;
25846;SDS011;13676;50.168;8.568;2022-08-21T03:10:14;5.13;;;3.10;;
25846;SDS011;13676;50.168;8.568;2022-08-21T03:12:40;5.18;;;3.25;;
25846;SDS011;13676;50.168;8.568;2022-08-21T03:15:08;5.80;;;3.53;;
25846;SDS011;13676;50.168;8.568;2022-08-21T03:17:35;6.18;;;3.75;;
25846;SDS011;13676;50.168;8.568;2022-08-21T03:20:01;5.93;;;3.50;;
25846;SDS011;13676;50.168;8.568;2022-08-21T03:22:28;5.32;;;3.20;;
25846;SDS011;13676;50.168;8.568;2022-08-21T03:24:53;4.88;;;3.47;;
25846;SDS011;13676;50.168;8.568;2022-08-21T03:27:19;3.95;;;3.50;;
25846;SDS011;13676;50.168;8.568;2022-08-21T03:29:44;5.00;;;3.58;;
25846;SDS011;13676;50.168;8.568;2022-08-21T03:32:11;5.25;;;3.38;;
25846;SDS011;13676;50.168;8.568;2022-08-21T03:34:37;4.10;;;3.03;;
25846;SDS011;13676;50.168;8.568;2022-08-21T03:37:03;5.93;;;3.40;;
25846;SDS011;13676;50.168;8.568;2022-08-21T03:39:30;4.55;;;3.10;;
25846;SDS011;13676;50.168;8.568;2022-08-21T03:41:55;6.13;;;3.50;;
25846;SDS011;13676;50.168;8.568;2022-08-21T03:44:21;4.07;;;2.97;;
25846;SDS011;13676;50.168;8.568;2022-08-21T03:46:46;5.25;;;3.70;;
25846;SDS011;13676;50.168;8.568;2022-08-21T03:49:12;4.18;;;2.70;;
25846;SDS011;13676;50.168;8.568;2022-08-21T03:51:38;4.30;;;3.30;;
25846;SDS011;13676;50.168;8.568;2022-08-21T03:54:03;3.63;;;3.28;;
25846;SDS011;13676;50.168;8.568;2022-08-21T03:56:29;5.50;;;3.20;;
25846;SDS011;13676;50.168;8.568;2022-08-21T03:58:54;4.72;;;3.25;;
25846;SDS011;13676;50.168;8.568;2022-08-21T04:01:20;4.22;;;3.05;;
25846;SDS011;13676;50.168;8.568;2022-08-21T04:03:46;4.57;;;3.47;;
25846;SDS011;13676;50.168;8.568;2022-08-21T04:06:11;5.28;;;3.50;;
25846;SDS011;13676;50.168;8.568;2022-08-21T04:08:36;5.15;;;3.47;;
25846;SDS011;13676;50.168;8.568;2022-08-21T04:11:02;4.70;;;3.55;;
25846;SDS011;13676;50.168;8.568;2022-08-21T04:13:27;5.13;;;3.67;;
25846;SDS011;13676;50.168;8.568;2022-08-21T04:15:53;4.25;;;3.42;;
25846;SDS011;13676;50.168;8.568;2022-08-21T04:18:19;3.58;;;3.28;;
25846;SDS011;13676;50.168;8.568;2022-08-21T04:20:46;4.53;;;3.28;;
25846;SDS011;13676;50.168;8.568;2022-08-21T04:23:14;5.97;;;3.30;;
25846;SDS011;13676;50.168;8.568;2022-08-21T04:25:39;5.18;;;3.35;;
25846;SDS011;13676;50.168;8.568;2022-08-21T04:28:05;5.60;;;3.63;;
25846;SDS011;13676;50.168;8.568;2022-08-21T04:30:30;4.28;;;3.30;;
25846;SDS011;13676;50.168;8.568;2022-08-21T04:32:56;3.45;;;3.13;;
25846;SDS011;13676;50.168;8.568;2022-08-21T04:35:23;3.60;;;3.30;;
25846;SDS011;13676;50.168;8.568;2022-08-21T04:37:49;4.78;;;2.95;;
25846;SDS011;13676;50.168;8.568;2022-08-21T04:40:16;3.55;;;2.75;;
25846;SDS011;13676;50.168;8.568;2022-08-21T04:42:44;3.15;;;2.80;;
25846;SDS011;13676;50.168;8.568;2022-08-21T04:45:15;6.10;;;3.30;;
25846;SDS011;13676;50.168;8.568;2022-08-21T04:47:44;5.20;;;3.60;;
25846;SDS011;13676;50.168;8.568;2022-08-21T04:50:10;5.22;;;3.25;;
25846;SDS011;13676;50.168;8.568;2022-08-21T04:52:35;5.35;;;3.72;;
25846;SDS011;13676;50.168;8.568;2022-08-21T04:55:01;4.30;;;3.30;;
25846;SDS011;13676;50.168;8.568;2022-08-21T04:57:26;5.13;;;3.70;;
25846;SDS011;13676;50.168;8.568;2022-08-21T04:59:52;7.32;;;4.18;;
25846;SDS011;13676;50.168;8.568;2022-08-21T05:02:17;5.03;;;3.70;;
25846;SDS011;13676;50.168;8.568;2022-08-21T05:04:44;6.28;;;3.53;;
25846;SDS011;13676;50.168;8.568;2022-08-21T05:07:14;6.00;;;3.88;;
25846;SDS011;13676;50.168;8.568;2022-08-21T05:09:42;4.28;;;3.22;;
25846;SDS011;13676;50.168;8.568;2022-08-21T05:12:08;4.50;;;3.60;;
25846;SDS011;13676;50.168;8.568;2022-08-21T05:14:33;6.30;;;3.90;;
25846;SDS011;13676;50.168;8.568;2022-08-21T05:16:59;6.15;;;3.65;;
25846;SDS011;13676;50.168;8.568;2022-08-21T05:19:24;6.07;;;4.13;;
25846;SDS011;13676;50.168;8.568;2022-08-21T05:21:50;5.25;;;4.20;;
25846;SDS011;13676;50.168;8.568;2022-08-21T05:24:15;5.13;;;4.05;;
25846;SDS011;13676;50.168;8.568;2022-08-21T05:26:41;4.78;;;3.42;;
25846;SDS011;13676;50.168;8.568;2022-08-21T05:29:06;5.85;;;3.72;;
25846;SDS011;13676;50.168;8.568;2022-08-21T05:31:32;9.10;;;3.53;;
25846;SDS011;13676;50.168;8.568;2022-08-21T05:33:57;7.53;;;3.60;;
25846;SDS011;13676;50.168;8.568;2022-08-21T05:36:22;8.30;;;3.70;;
25846;SDS011;13676;50.168;8.568;2022-08-21T05:38:48;6.55;;;4.28;;
25846;SDS011;13676;50.168;8.568;2022-08-21T05:41:13;5.60;;;3.47;;
25846;SDS011;13676;50.168;8.568;2022-08-21T05:43:39;9.45;;;4.18;;
25846;SDS011;13676;50.168;8.568;2022-08-21T05:46:05;7.63;;;3.85;;
25846;SDS011;13676;50.168;8.568;2022-08-21T05:48:32;9.85;;;4.13;;
25846;SDS011;13676;50.168;8.568;2022-08-21T05:50:58;6.53;;;3.50;;
25846;SDS011;13676;50.168;8.568;2022-08-21T05:53:29;7.45;;;3.95;;
25846;SDS011;13676;50.168;8.568;2022-08-21T05:55:55;5.50;;;3.80;;
25846;SDS011;13676;50.168;8.568;2022-08-21T05:58:20;7.30;;;4.20;;
25846;SDS011;13676;50.168;8.568;2022-08-21T06:00:48;6.70;;;3.92;;
25846;SDS011;13676;50.168;8.568;2022-08-21T06:03:17;8.07;;;4.33;;
25846;SDS011;13676;50.168;8.568;2022-08-21T06:05:44;6.03;;;4.13;;
25846;SDS011;13676;50.168;8.568;2022-08-21T06:08:10;9.15;;;4.63;;
25846;SDS011;13676;50.168;8.568;2022-08-21T06:10:36;6.13;;;4.13;;
25846;SDS011;13676;50.168;8.568;2022-08-21T06:13:01;7.15;;;4.57;;
25846;SDS011;13676;50.168;8.568;2022-08-21T06:15:27;6.10;;;4.07;;
25846;SDS011;13676;50.168;8.568;2022-08-21T06:17:53;6.78;;;4.18;;
25846;SDS011;13676;50.168;8.568;2022-08-21T06:20:19;7.65;;;3.70;;
25846;SDS011;13676;50.168;8.568;2022-08-21T06:22:44;11.80;;;4.25;;
25846;SDS011;13676;50.168;8.568;2022-08-21T06:25:10;6.15;;;3.88;;
25846;SDS011;13676;50.168;8.568;2022-08-21T06:27:35;9.57;;;5.15;;
25846;SDS011;13676;50.168;8.568;2022-08-21T06:30:01;7.90;;;4.97;;
25846;SDS011;13676;50.168;8.568;2022-08-21T06:32:27;6.53;;;4.55;;
25846;SDS011;13676;50.168;8.568;2022-08-21T06:34:52;5.45;;;3.92;;
25846;SDS011;13676;50.168;8.568;2022-08-21T06:37:18;4.88;;;4.00;;
25846;SDS011;13676;50.168;8.568;2022-08-21T06:39:43;9.30;;;4.50;;
25846;SDS011;13676;50.168;8.568;2022-08-21T06:42:13;7.00;;;3.80;;
25846;SDS011;13676;50.168;8.568;2022-08-21T06:44:39;8.32;;;4.57;;
25846;SDS011;13676;50.168;8.568;2022-08-21T06:47:05;12.57;;;5.30;;
25846;SDS011;13676;50.168;8.568;2022-08-21T06:49:30;7.40;;;4.47;;
25846;SDS011;13676;50.168;8.568;2022-08-21T06:51:55;9.65;;;3.75;;
25846;SDS011;13676;50.168;8.568;2022-08-21T06:54:21;7.15;;;4.53;;
25846;SDS011;13676;50.168;8.568;2022-08-21T06:56:46;7.03;;;3.72;;
25846;SDS011;13676;50.168;8.568;2022-08-21T06:59:11;6.00;;;4.18;;
25846;SDS011;13676;50.168;8.568;2022-08-21T07:01:37;9.95;;;3.85;;
25846;SDS011;13676;50.168;8.568;2022-08-21T07:04:02;9.80;;;5.03;;
25846;SDS011;13676;50.168;8.568;2022-08-21T07:06:28;8.52;;;4.47;;
25846;SDS011;13676;50.168;8.568;2022-08-21T07:08:53;10.05;;;5.82;;
25846;SDS011;13676;50.168;8.568;2022-08-21T07:11:20;9.02;;;5.15;;
25846;SDS011;13676;50.168;8.568;2022-08-21T07:13:47;9.32;;;4.32;;
25846;SDS011;13676;50.168;8.568;2022-08-21T07:16:13;4.97;;;3.80;;
25846;SDS011;13676;50.168;8.568;2022-08-21T07:18:38;5.18;;;3.63;;
25846;SDS011;13676;50.168;8.568;2022-08-21T07:21:05;6.82;;;3.63;;
25846;SDS011;13676;50.168;8.568;2022-08-21T07:23:32;6.30;;;3.65;;
25846;SDS011;13676;50.168;8.568;2022-08-21T07:26:00;7.38;;;4.03;;
25846;SDS011;13676;50.168;8.568;2022-08-21T07:28:27;7.38;;;4.60;;
25846;SDS011;13676;50.168;8.568;2022-08-21T07:30:54;6.65;;;4.10;;
25846;SDS011;13676;50.168;8.568;2022-08-21T07:33:20;8.88;;;4.32;;
25846;SDS011;13676;50.168;8.568;2022-08-21T07:35:45;6.75;;;3.72;;
25846;SDS011;13676;50.168;8.568;2022-08-21T07:38:11;6.82;;;3.45;;
25846;SDS011;13676;50.168;8.568;2022-08-21T07:40:36;7.05;;;3.97;;
25846;SDS011;13676;50.168;8.568;2022-08-21T07:43:02;5.65;;;3.47;;
25846;SDS011;13676;50.168;8.568;2022-08-21T07:45:27;7.18;;;4.28;;
25846;SDS011;13676;50.168;8.568;2022-08-21T07:47:53;5.68;;;3.40;;
25846;SDS011;13676;50.168;8.568;2022-08-21T07:50:18;5.65;;;3.72;;
25846;SDS011;13676;50.168;8.568;2022-08-21T07:52:44;7.53;;;4.10;;
25846;SDS011;13676;50.168;8.568;2022-08-21T07:55:11;8.38;;;3.58;;
25846;SDS011;13676;50.168;8.568;2022-08-21T07:57:38;3.75;;;3.25;;
25846;SDS011;13676;50.168;8.568;2022-08-21T08:00:04;6.80;;;4.15;;
25846;SDS011;13676;50.168;8.568;2022-08-21T08:02:31;6.10;;;4.28;;
25846;SDS011;13676;50.168;8.568;2022-08-21T08:05:03;7.60;;;4.43;;
25846;SDS011;13676;50.168;8.568;2022-08-21T08:07:30;6.50;;;3.60;;
25846;SDS011;13676;50.168;8.568;2022-08-21T08:09:56;8.45;;;4.50;;
25846;SDS011;13676;50.168;8.568;2022-08-21T08:12:23;5.43;;;3.60;;
25846;SDS011;13676;50.168;8.568;2022-08-21T08:14:54;9.50;;;4.20;;
25846;SDS011;13676;50.168;8.568;2022-08-21T08:17:19;5.32;;;4.40;;
25846;SDS011;13676;50.168;8.568;2022-08-21T08:19:48;7.72;;;4.53;;
25846;SDS011;13676;50.168;8.568;2022-08-21T08:22:15;8.57;;;4.20;;
25846;SDS011;13676;50.168;8.568;2022-08-21T08:24:42;4.40;;;3.42;;
25846;SDS011;13676;50.168;8.568;2022-08-21T08:27:07;6.57;;;4.18;;
25846;SDS011;13676;50.168;8.568;2022-08-21T08:29:33;6.78;;;4.05;;
25846;SDS011;13676;50.168;8.568;2022-08-21T08:31:58;5.78;;;3.55;;
25846;SDS011;13676;50.168;8.568;2022-08-21T08:34:24;7.82;;;3.83;;
25846;SDS011;13676;50.168;8.568;2022-08-21T08:36:49;5.80;;;4.05;;
25846;SDS011;13676;50.168;8.568;2022-08-21T08:39:15;6.68;;;4.13;;
25846;SDS011;13676;50.168;8.568;2022-08-21T08:41:40;10.32;;;4.72;;
25846;SDS011;13676;50.168;8.568;2022-08-21T08:44:06;8.35;;;4.57;;
25846;SDS011;13676;50.168;8.568;2022-08-21T08:49:11;6.60;;;3.17;;
25846;SDS011;13676;50.168;8.568;2022-08-21T08:54:20;5.25;;;2.80;;
25846;SDS011;13676;50.168;8.568;2022-08-21T08:56:51;9.13;;;3.58;;
25846;SDS011;13676;50.168;8.568;2022-08-21T08:59:21;6.88;;;2.80;;
25846;SDS011;13676;50.168;8.568;2022-08-21T09:02:03;9.88;;;3.70;;
25846;SDS011;13676;50.168;8.568;2022-08-21T09:04:29;6.17;;;3.13;;
25846;SDS011;13676;50.168;8.568;2022-08-21T09:07:12;9.35;;;3.70;;
25846;SDS011;13676;50.168;8.568;2022-08-21T09:15:29;6.10;;;3.05;;
25846;SDS011;13676;50.168;8.568;2022-08-21T09:20:53;5.70;;;2.95;;
25846;SDS011;13676;50.168;8.568;2022-08-21T09:26:02;7.28;;;2.67;;
25846;SDS011;13676;50.168;8.568;2022-08-21T09:28:35;6.22;;;2.85;;
25846;SDS011;13676;50.168;8.568;2022-08-21T09:31:08;9.38;;;3.42;;
25846;SDS011;13676;50.168;8.568;2022-08-21T09:33:40;4.63;;;2.40;;
25846;SDS011;13676;50.168;8.568;2022-08-21T09:36:05;6.57;;;2.80;;
25846;SDS011;13676;50.168;8.568;2022-08-21T09:38:32;10.32;;;3.20;;
25846;SDS011;13676;50.168;8.568;2022-08-21T09:41:25;6.68;;;2.30;;
25846;SDS011;13676;50.168;8.568;2022-08-21T09:43:56;3.22;;;2.25;;
25846;SDS011;13676;50.168;8.568;2022-08-21T09:46:23;5.60;;;2.50;;
25846;SDS011;13676;50.168;8.568;2022-08-21T09:48:51;4.95;;;2.40;;
25846;SDS011;13676;50.168;8.568;2022-08-21T09:51:20;6.75;;;2.65;;
25846;SDS011;13676;50.168;8.568;2022-08-21T09:56:50;10.02;;;3.00;;
25846;SDS011;13676;50.168;8.568;2022-08-21T09:59:36;6.28;;;2.80;;
25846;SDS011;13676;50.168;8.568;2022-08-21T10:02:23;3.92;;;2.08;;
25846;SDS011;13676;50.168;8.568;2022-08-21T10:04:55;6.93;;;2.42;;
25846;SDS011;13676;50.168;8.568;2022-08-21T10:07:26;6.28;;;2.53;;
25846;SDS011;13676;50.168;8.568;2022-08-21T10:10:02;6.50;;;2.60;;
25846;SDS011;13676;50.168;8.568;2022-08-21T10:15:10;5.30;;;2.58;;
25846;SDS011;13676;50.168;8.568;2022-08-21T10:17:57;6.60;;;2.40;;
25846;SDS011;13676;50.168;8.568;2022-08-21T10:20:36;6.38;;;2.47;;
25846;SDS011;13676;50.168;8.568;2022-08-21T10:25:53;4.80;;;2.13;;
25846;SDS011;13676;50.168;8.568;2022-08-21T10:28:26;5.90;;;2.17;;
25846;SDS011;13676;50.168;8.568;2022-08-21T10:47:51;5.97;;;2.60;;
25846;SDS011;13676;50.168;8.568;2022-08-21T10:50:35;7.10;;;2.13;;
25846;SDS011;13676;50.168;8.568;2022-08-21T10:56:02;7.30;;;2.60;;
25846;SDS011;13676;50.168;8.568;2022-08-21T10:58:37;5.60;;;2.20;;
25846;SDS011;13676;50.168;8.568;2022-08-21T11:01:12;7.45;;;2.33;;
25846;SDS011;13676;50.168;8.568;2022-08-21T11:06:50;4.28;;;1.90;;
25846;SDS011;13676;50.168;8.568;2022-08-21T11:09:19;7.18;;;2.00;;
25846;SDS011;13676;50.168;8.568;2022-08-21T11:12:06;5.60;;;2.60;;
25846;SDS011;13676;50.168;8.568;2022-08-21T11:15:22;4.82;;;2.00;;
25846;SDS011;13676;50.168;8.568;2022-08-21T11:17:36;4.85;;;1.85;;
25846;SDS011;13676;50.168;8.568;2022-08-21T11:22:40;4.25;;;2.10;;
25846;SDS011;13676;50.168;8.568;2022-08-21T11:30:19;3.13;;;1.80;;
25846;SDS011;13676;50.168;8.568;2022-08-21T11:35:42;4.32;;;1.85;;
25846;SDS011;13676;50.168;8.568;2022-08-21T11:43:38;4.53;;;1.40;;
25846;SDS011;13676;50.168;8.568;2022-08-21T11:51:18;4.93;;;1.77;;
25846;SDS011;13676;50.168;8.568;2022-08-21T11:53:54;3.13;;;1.45;;
25846;SDS011;13676;50.168;8.568;2022-08-21T11:56:25;2.60;;;1.60;;
25846;SDS011;13676;50.168;8.568;2022-08-21T11:59:23;3.30;;;1.55;;
25846;SDS011;13676;50.168;8.568;2022-08-21T12:01:58;3.67;;;1.38;;
25846;SDS011;13676;50.168;8.568;2022-08-21T12:04:27;5.32;;;2.03;;
25846;SDS011;13676;50.168;8.568;2022-08-21T12:06:54;4.50;;;1.85;;
25846;SDS011;13676;50.168;8.568;2022-08-21T12:11:50;4.53;;;1.92;;
25846;SDS011;13676;50.168;8.568;2022-08-21T12:14:24;2.88;;;1.20;;
25846;SDS011;13676;50.168;8.568;2022-08-21T12:19:30;4.82;;;1.80;;
25846;SDS011;13676;50.168;8.568;2022-08-21T12:24:45;4.45;;;1.50;;
25846;SDS011;13676;50.168;8.568;2022-08-21T12:27:18;2.40;;;1.40;;
25846;SDS011;13676;50.168;8.568;2022-08-21T12:29:51;4.28;;;1.67;;
25846;SDS011;13676;50.168;8.568;2022-08-21T12:32:24;2.80;;;1.80;;
25846;SDS011;13676;50.168;8.568;2022-08-21T12:35:17;4.68;;;1.50;;
25846;SDS011;13676;50.168;8.568;2022-08-21T12:37:45;4.38;;;1.77;;
25846;SDS011;13676;50.168;8.568;2022-08-21T12:42:50;2.17;;;1.17;;
25846;SDS011;13676;50.168;8.568;2022-08-21T12:45:19;5.03;;;1.90;;
25846;SDS011;13676;50.168;8.568;2022-08-21T12:50:50;3.03;;;1.40;;
25846;SDS011;13676;50.168;8.568;2022-08-21T12:56:07;5.15;;;1.75;;
25846;SDS011;13676;50.168;8.568;2022-08-21T12:58:34;3.15;;;1.52;;
25846;SDS011;13676;50.168;8.568;2022-08-21T13:01:03;4.25;;;1.70;;
25846;SDS011;13676;50.168;8.568;2022-08-21T13:03:33;2.88;;;1.50;;
25846;SDS011;13676;50.168;8.568;2022-08-21T13:06:00;3.80;;;1.30;;
25846;SDS011;13676;50.168;8.568;2022-08-21T13:08:28;5.25;;;1.17;;
25846;SDS011;13676;50.168;8.568;2022-08-21T13:11:03;2.58;;;1.30;;
25846;SDS011;13676;50.168;8.568;2022-08-21T13:13:30;4.50;;;1.40;;
25846;SDS011;13676;50.168;8.568;2022-08-21T13:16:05;3.03;;;1.40;;
25846;SDS011;13676;50.168;8.568;2022-08-21T13:18:33;5.82;;;1.63;;
25846;SDS011;13676;50.168;8.568;2022-08-21T13:21:07;2.72;;;1.50;;
25846;SDS011;13676;50.168;8.568;2022-08-21T13:23:35;4.53;;;1.80;;
25846;SDS011;13676;50.168;8.568;2022-08-21T13:26:01;2.60;;;1.40;;
25846;SDS011;13676;50.168;8.568;2022-08-21T13:28:37;3.10;;;1.35;;
25846;SDS011;13676;50.168;8.568;2022-08-21T13:31:05;3.15;;;1.63;;
25846;SDS011;13676;50.168;8.568;2022-08-21T13:33:33;3.80;;;1.58;;
25846;SDS011;13676;50.168;8.568;2022-08-21T13:38:25;5.68;;;1.90;;
25846;SDS011;13676;50.168;8.568;2022-08-21T13:40:54;7.03;;;2.20;;
25846;SDS011;13676;50.168;8.568;2022-08-21T13:43:24;3.70;;;1.70;;
25846;SDS011;13676;50.168;8.568;2022-08-21T13:45:55;5.30;;;1.90;;
25846;SDS011;13676;50.168;8.568;2022-08-21T13:48:22;4.17;;;1.60;;
25846;SDS011;13676;50.168;8.568;2022-08-21T13:50:48;2.80;;;1.40;;
25846;SDS011;13676;50.168;8.568;2022-08-21T13:53:30;4.72;;;1.63;;
25846;SDS011;13676;50.168;8.568;2022-08-21T13:55:58;4.32;;;1.60;;
25846;SDS011;13676;50.168;8.568;2022-08-21T13:58:27;4.03;;;1.73;;
25846;SDS011;13676;50.168;8.568;2022-08-21T14:00:54;3.92;;;1.67;;
25846;SDS011;13676;50.168;8.568;2022-08-21T14:03:29;2.22;;;1.35;;
25846;SDS011;13676;50.168;8.568;2022-08-21T14:05:55;2.45;;;1.17;;
25846;SDS011;13676;50.168;8.568;2022-08-21T14:08:26;10.35;;;1.40;;
25846;SDS011;13676;50.168;8.568;2022-08-21T14:10:54;5.32;;;1.55;;
25846;SDS011;13676;50.168;8.568;2022-08-21T14:15:46;4.18;;;1.38;;
25846;SDS011;13676;50.168;8.568;2022-08-21T14:18:20;2.67;;;1.23;;
25846;SDS011;13676;50.168;8.568;2022-08-21T14:20:45;1.70;;;0.85;;
25846;SDS011;13676;50.168;8.568;2022-08-21T14:23:11;2.45;;;1.00;;
25846;SDS011;13676;50.168;8.568;2022-08-21T14:25:42;2.75;;;1.33;;
25846;SDS011;13676;50.168;8.568;2022-08-21T14:28:26;2.25;;;1.30;;
25846;SDS011;13676;50.168;8.568;2022-08-21T14:30:54;4.55;;;1.77;;
25846;SDS011;13676;50.168;8.568;2022-08-21T14:33:42;4.00;;;1.58;;
25846;SDS011;13676;50.168;8.568;2022-08-21T14:36:07;3.67;;;1.60;;
25846;SDS011;13676;50.168;8.568;2022-08-21T14:38:34;2.45;;;1.33;;
25846;SDS011;13676;50.168;8.568;2022-08-21T14:41:03;6.28;;;1.45;;
25846;SDS011;13676;50.168;8.568;2022-08-21T14:43:35;3.45;;;1.40;;
25846;SDS011;13676;50.168;8.568;2022-08-21T14:46:00;2.55;;;1.10;;
25846;SDS011;13676;50.168;8.568;2022-08-21T14:48:26;3.15;;;1.23;;
25846;SDS011;13676;50.168;8.568;2022-08-21T14:50:51;3.05;;;1.27;;
25846;SDS011;13676;50.168;8.568;2022-08-21T14:53:17;2.80;;;1.10;;
25846;SDS011;13676;50.168;8.568;2022-08-21T14:55:42;2.25;;;1.17;;
25846;SDS011;13676;50.168;8.568;2022-08-21T14:58:26;3.70;;;1.42;;
25846;SDS011;13676;50.168;8.568;2022-08-21T15:00:52;3.00;;;1.15;;
25846;SDS011;13676;50.168;8.568;2022-08-21T15:05:46;2.42;;;1.13;;
25846;SDS011;13676;50.168;8.568;2022-08-21T15:08:12;3.90;;;1.25;;
25846;SDS011;13676;50.168;8.568;2022-08-21T15:10:37;3.33;;;1.50;;
25846;SDS011;13676;50.168;8.568;2022-08-21T15:13:02;3.45;;;1.20;;
25846;SDS011;13676;50.168;8.568;2022-08-21T15:15:29;1.77;;;1.00;;
25846;SDS011;13676;50.168;8.568;2022-08-21T15:17:58;2.53;;;0.90;;
25846;SDS011;13676;50.168;8.568;2022-08-21T15:20:23;3.20;;;1.40;;
25846;SDS011;13676;50.168;8.568;2022-08-21T15:22:48;3.38;;;1.25;;
25846;SDS011;13676;50.168;8.568;2022-08-21T15:25:14;3.35;;;0.93;;
25846;SDS011;13676;50.168;8.568;2022-08-21T15:27:39;2.15;;;1.27;;
25846;SDS011;13676;50.168;8.568;2022-08-21T15:30:05;1.92;;;0.98;;
25846;SDS011;13676;50.168;8.568;2022-08-21T15:32:31;2.97;;;1.33;;
25846;SDS011;13676;50.168;8.568;2022-08-21T15:34:56;3.05;;;1.55;;
25846;SDS011;13676;50.168;8.568;2022-08-21T15:37:23;2.40;;;1.10;;
25846;SDS011;13676;50.168;8.568;2022-08-21T15:39:49;1.60;;;0.90;;
25846;SDS011;13676;50.168;8.568;2022-08-21T15:42:15;2.90;;;1.00;;
25846;SDS011;13676;50.168;8.568;2022-08-21T15:44:41;2.28;;;1.17;;
25846;SDS011;13676;50.168;8.568;2022-08-21T15:47:29;2.63;;;1.20;;
25846;SDS011;13676;50.168;8.568;2022-08-21T15:49:56;3.28;;;1.15;;
25846;SDS011;13676;50.168;8.568;2022-08-21T15:52:22;3.17;;;1.20;;
25846;SDS011;13676;50.168;8.568;2022-08-21T15:54:48;2.92;;;1.40;;
25846;SDS011;13676;50.168;8.568;2022-08-21T15:57:15;2.42;;;1.40;;
25846;SDS011;13676;50.168;8.568;2022-08-21T15:59:43;3.80;;;1.40;;
25846;SDS011;13676;50.168;8.568;2022-08-21T16:02:12;2.08;;;1.20;;
25846;SDS011;13676;50.168;8.568;2022-08-21T16:04:39;2.03;;;0.98;;
25846;SDS011;13676;50.168;8.568;2022-08-21T16:07:05;3.25;;;1.00;;
25846;SDS011;13676;50.168;8.568;2022-08-21T16:09:30;2.85;;;1.15;;
25846;SDS011;13676;50.168;8.568;2022-08-21T16:11:56;4.75;;;1.48;;
25846;SDS011;13676;50.168;8.568;2022-08-21T16:14:21;3.03;;;1.30;;
25846;SDS011;13676;50.168;8.568;2022-08-21T16:16:46;3.03;;;1.10;;
25846;SDS011;13676;50.168;8.568;2022-08-21T16:19:12;2.60;;;1.20;;
25846;SDS011;13676;50.168;8.568;2022-08-21T16:21:38;2.75;;;0.98;;
25846;SDS011;13676;50.168;8.568;2022-08-21T16:24:04;2.42;;;1.13;;
25846;SDS011;13676;50.168;8.568;2022-08-21T16:26:29;4.30;;;1.33;;
25846;SDS011;13676;50.168;8.568;2022-08-21T16:28:55;2.70;;;1.20;;
25846;SDS011;13676;50.168;8.568;2022-08-21T16:31:22;2.38;;;1.02;;